Time,TemperatureF,DewpointF,PressureIn,WindDirection,WindDirectionDegrees,WindSpeedMPH,WindSpeedGustMPH,Humidity,HourlyPrecipIn,Conditions,Clouds,dailyrainin,SoftwareType,DateUTC
2013-12-14 00:04:00,73.9,64.3,29.83,North,3,0.0,0.0,72,0.00,CLR,,0.00,WeatherDisplay:10.37,2013-12-13 13:04:00,
2013-12-14 00:09:00,73.7,64.5,29.83,NW,305,0.0,0.0,73,0.00,CLR,,0.00,WeatherDisplay:10.37,2013-12-13 13:09:00,
2013-12-14 00:14:00,73.4,64.2,29.83,NW,306,0.0,0.0,73,0.00,CLR,,0.00,WeatherDisplay:10.37,2013-12-13 13:14:00,
2013-12-14 00:19:00,73.2,64.0,29.83,NW,321,0.0,0.0,73,0.00,CLR,,0.00,WeatherDisplay:10.37,2013-12-13 13:19:00,
2013-12-14 00:24:00,73.2,64.4,29.82,NW,308,0.0,0.0,74,0.00,CLR,,0.00,WeatherDisplay:10.37,2013-12-13 13:24:00,
2013-12-14 00:29:00,73.2,64.4,29.83,NW,315,0.0,0.0,74,0.00,CLR,,0.00,WeatherDisplay:10.37,2013-12-13 13:29:00,
2013-12-14 00:34:00,73.2,64.4,29.82,WNW,290,0.0,0.0,74,0.00,CLR,,0.00,WeatherDisplay:10.37,2013-12-13 13:34:00,
2013-12-14 00:39:00,73.0,64.3,29.82,WNW,288,0.0,0.0,74,0.00,CLR,,0.00,WeatherDisplay:10.37,2013-12-13 13:39:00,
2013-12-14 00:44:00,72.9,64.1,29.82,NW,307,0.0,0.0,74,0.00,CLR,,0.00,WeatherDisplay:10.37,2013-12-13 13:44:00,
2013-12-14 00:49:00,72.7,63.9,29.82,WNW,288,0.0,0.0,74,0.00,CLR,,0.00,WeatherDisplay:10.37,2013-12-13 13:49:00,
2013-12-14 00:54:00,72.7,63.9,29.82,West,274,0.0,0.0,74,0.00,CLR,,0.00,WeatherDisplay:10.37,2013-12-13 13:54:00,
2013-12-14 00:59:00,72.7,63.9,29.82,WNW,285,0.0,0.0,74,0.00,CLR,,0.00,WeatherDisplay:10.37,2013-12-13 13:59:00,
2013-12-14 01:04:00,72.7,63.9,29.81,NNW,341,0.0,0.0,74,0.00,CLR,,0.00,WeatherDisplay:10.37,2013-12-13 14:04:00,
2013-12-14 01:09:00,72.5,63.8,29.81,NNW,341,0.0,0.0,74,0.00,CLR,,0.00,WeatherDisplay:10.37,2013-12-13 14:09:00,
2013-12-14 01:14:00,72.3,63.9,29.81,West,272,0.0,0.0,75,0.00,CLR,,0.00,WeatherDisplay:10.37,2013-12-13 14:14:00,
2013-12-14 01:19:00,72.1,63.8,29.81,WSW,258,0.0,0.0,75,0.00,CLR,,0.00,WeatherDisplay:10.37,2013-12-13 14:19:00,
2013-12-14 01:24:00,72.1,63.8,29.81,NNW,328,0.0,0.0,75,0.00,CLR,,0.00,WeatherDisplay:10.37,2013-12-13 14:24:00,
2013-12-14 01:29:00,72.3,64.3,29.81,NNE,24,0.0,0.0,76,0.00,CLR,,0.00,WeatherDisplay:10.37,2013-12-13 14:29:00,
2013-12-14 01:34:00,72.1,63.8,29.81,NNE,14,0.0,0.0,75,0.00,CLR,,0.00,WeatherDisplay:10.37,2013-12-13 14:34:00,
2013-12-14 01:39:00,72.0,63.6,29.80,NW,326,0.0,0.0,75,0.00,CLR,,0.00,WeatherDisplay:10.37,2013-12-13 14:39:00,
2013-12-14 01:44:00,71.8,63.4,29.80,WSW,243,0.0,0.0,75,0.00,CLR,,0.00,WeatherDisplay:10.37,2013-12-13 14:44:00,
2013-12-14 01:49:00,71.8,63.8,29.80,SW,225,0.0,0.0,76,0.00,CLR,,0.00,WeatherDisplay:10.37,2013-12-13 14:49:00,
2013-12-14 01:54:00,71.8,63.4,29.80,SW,225,0.0,0.0,75,0.00,CLR,,0.00,WeatherDisplay:10.37,2013-12-13 14:54:00,
2013-12-14 01:59:00,71.4,63.5,29.80,SW,227,0.0,0.0,76,0.00,CLR,,0.00,WeatherDisplay:10.37,2013-12-13 14:59:00,
2013-12-14 02:04:00,71.8,63.8,29.80,SSW,192,0.0,0.0,76,0.00,CLR,,0.00,WeatherDisplay:10.37,2013-12-13 15:04:00,
2013-12-14 02:09:00,71.7,63.7,29.80,ENE,72,0.0,0.0,76,0.00,CLR,,0.00,WeatherDisplay:10.37,2013-12-13 15:09:00,
2013-12-14 02:14:00,71.4,63.5,29.80,West,267,0.0,0.0,76,0.00,CLR,,0.00,WeatherDisplay:10.37,2013-12-13 15:14:00,
2013-12-14 02:19:00,71.4,63.5,29.80,NW,313,0.0,0.0,76,0.00,CLR,,0.00,WeatherDisplay:10.37,2013-12-13 15:19:00,
2013-12-14 02:24:00,71.2,63.7,29.80,NNW,331,0.0,0.0,77,0.00,CLR,,0.00,WeatherDisplay:10.37,2013-12-13 15:24:00,
2013-12-14 02:29:00,71.2,63.7,29.80,West,275,0.0,0.0,77,0.00,CLR,,0.00,WeatherDisplay:10.37,2013-12-13 15:29:00,
2013-12-14 02:34:00,71.2,63.7,29.80,WSW,252,0.0,0.0,77,0.00,CLR,,0.00,WeatherDisplay:10.37,2013-12-13 15:34:00,
2013-12-14 02:39:00,71.2,63.7,29.79,West,267,0.0,0.0,77,0.00,CLR,,0.00,WeatherDisplay:10.37,2013-12-13 15:39:00,
2013-12-14 02:44:00,70.9,63.3,29.79,WNW,300,0.0,0.0,77,0.00,CLR,,0.00,WeatherDisplay:10.37,2013-12-13 15:44:00,
2013-12-14 02:49:00,70.7,63.5,29.79,NNW,333,0.0,0.0,78,0.00,CLR,,0.00,WeatherDisplay:10.37,2013-12-13 15:49:00,
2013-12-14 02:54:00,70.8,63.6,29.79,North,353,0.0,0.0,78,0.00,CLR,,0.00,WeatherDisplay:10.37,2013-12-13 15:54:00,
2013-12-14 02:59:00,70.7,63.5,29.79,NNW,333,0.0,0.0,78,0.00,CLR,,0.00,WeatherDisplay:10.37,2013-12-13 15:59:00,
2013-12-14 03:04:00,70.5,63.3,29.79,WNW,302,0.0,0.0,78,0.00,CLR,,0.00,WeatherDisplay:10.37,2013-12-13 16:04:00,
2013-12-14 03:09:00,70.5,63.3,29.79,SW,233,0.0,0.0,78,0.00,CLR,,0.00,WeatherDisplay:10.37,2013-12-13 16:09:00,
2013-12-14 03:14:00,70.5,63.3,29.79,SSW,192,0.0,0.0,78,0.00,CLR,,0.00,WeatherDisplay:10.37,2013-12-13 16:14:00,
2013-12-14 03:19:00,70.5,63.3,29.79,WSW,238,0.0,0.0,78,0.00,CLR,,0.00,WeatherDisplay:10.37,2013-12-13 16:19:00,
2013-12-14 03:24:00,70.5,63.3,29.79,WSW,254,0.0,0.0,78,0.00,CLR,,0.00,WeatherDisplay:10.37,2013-12-13 16:24:00,
2013-12-14 03:29:00,70.3,63.2,29.79,West,269,0.0,0.0,78,0.00,CLR,,0.00,WeatherDisplay:10.37,2013-12-13 16:29:00,
2013-12-14 03:34:00,70.3,63.2,29.79,West,268,0.0,0.0,78,0.00,CLR,,0.00,WeatherDisplay:10.37,2013-12-13 16:34:00,
2013-12-14 03:39:00,70.3,63.5,29.79,West,280,0.0,0.0,79,0.00,CLR,,0.00,WeatherDisplay:10.37,2013-12-13 16:39:00,
2013-12-14 03:44:00,70.3,63.5,29.79,WNW,285,0.0,0.0,79,0.00,CLR,,0.00,WeatherDisplay:10.37,2013-12-13 16:44:00,
2013-12-14 03:49:00,70.2,63.3,29.79,West,276,0.0,0.0,79,0.00,CLR,,0.00,WeatherDisplay:10.37,2013-12-13 16:49:00,
2013-12-14 03:54:00,70.1,63.3,29.79,West,279,0.0,0.0,79,0.00,CLR,,0.00,WeatherDisplay:10.37,2013-12-13 16:54:00,
2013-12-14 03:59:00,70.0,63.2,29.79,WNW,298,0.0,0.0,79,0.00,CLR,,0.00,WeatherDisplay:10.37,2013-12-13 16:59:00,
2013-12-14 04:04:00,70.0,63.5,29.79,West,264,0.0,0.0,80,0.00,CLR,,0.00,WeatherDisplay:10.37,2013-12-13 17:04:00,
2013-12-14 04:09:00,70.0,63.2,29.79,WSW,238,0.0,0.0,79,0.00,CLR,,0.00,WeatherDisplay:10.37,2013-12-13 17:09:00,
2013-12-14 04:14:00,69.9,63.4,29.80,SW,230,0.0,0.0,80,0.00,CLR,,0.00,WeatherDisplay:10.37,2013-12-13 17:14:00,
2013-12-14 04:19:00,69.7,62.9,29.80,SSW,192,0.0,0.0,79,0.00,CLR,,0.00,WeatherDisplay:10.37,2013-12-13 17:19:00,
2013-12-14 04:24:00,69.6,62.8,29.80,South,186,0.0,0.0,79,0.00,CLR,,0.00,WeatherDisplay:10.37,2013-12-13 17:24:00,
2013-12-14 04:29:00,69.5,62.7,29.81,South,178,0.0,0.0,79,0.00,CLR,,0.00,WeatherDisplay:10.37,2013-12-13 17:29:00,
2013-12-14 04:34:00,69.4,62.6,29.81,SSE,156,0.0,0.0,79,0.00,CLR,,0.00,WeatherDisplay:10.37,2013-12-13 17:34:00,
2013-12-14 04:39:00,69.6,63.2,29.81,SSE,161,0.0,0.0,80,0.00,CLR,,0.00,WeatherDisplay:10.37,2013-12-13 17:39:00,
2013-12-14 04:44:00,69.6,63.2,29.81,South,176,0.0,0.0,80,0.00,CLR,,0.00,WeatherDisplay:10.37,2013-12-13 17:44:00,
2013-12-14 04:49:00,69.6,63.2,29.82,SSW,208,0.0,0.0,80,0.00,CLR,,0.00,WeatherDisplay:10.37,2013-12-13 17:49:00,
2013-12-14 04:54:00,69.6,63.2,29.82,WSW,257,0.0,0.0,80,0.00,CLR,,0.00,WeatherDisplay:10.37,2013-12-13 17:54:00,
2013-12-14 04:59:00,69.6,63.5,29.82,WSW,248,0.0,0.0,81,0.00,CLR,,0.00,WeatherDisplay:10.37,2013-12-13 17:59:00,
2013-12-14 05:04:00,69.6,63.5,29.82,SW,231,0.0,0.0,81,0.00,CLR,,0.00,WeatherDisplay:10.37,2013-12-13 18:04:00,
2013-12-14 05:09:00,69.4,63.7,29.83,SW,219,0.0,0.0,82,0.00,CLR,,0.00,WeatherDisplay:10.37,2013-12-13 18:09:00,
2013-12-14 05:14:00,69.4,63.7,29.83,SW,225,0.0,0.0,82,0.00,CLR,,0.00,WeatherDisplay:10.37,2013-12-13 18:14:00,
2013-12-14 05:19:00,69.5,64.1,29.83,SW,225,0.0,0.0,83,0.00,CLR,,0.00,WeatherDisplay:10.37,2013-12-13 18:19:00,
2013-12-14 05:24:00,69.6,64.2,29.83,SW,231,0.0,0.0,83,0.00,CLR,,0.00,WeatherDisplay:10.37,2013-12-13 18:24:00,
2013-12-14 05:29:00,69.6,64.2,29.83,SW,228,1.0,6.0,83,0.00,CLR,,0.00,WeatherDisplay:10.37,2013-12-13 18:29:00,
2013-12-14 05:34:00,69.6,64.6,29.84,SW,236,2.0,9.0,84,0.00,CLR,,0.00,WeatherDisplay:10.37,2013-12-13 18:34:00,
2013-12-14 05:39:00,69.6,64.6,29.84,WSW,246,3.0,9.0,84,0.00,CLR,,0.00,WeatherDisplay:10.37,2013-12-13 18:39:00,
2013-12-14 05:44:00,69.6,64.6,29.84,WSW,239,3.0,7.0,84,0.00,CLR,,0.00,WeatherDisplay:10.37,2013-12-13 18:44:00,
2013-12-14 05:49:00,69.8,64.4,29.84,SW,227,2.0,7.0,83,0.00,CLR,,0.00,WeatherDisplay:10.37,2013-12-13 18:49:00,
2013-12-14 05:54:00,69.7,64.3,29.84,SW,230,5.0,9.0,83,0.00,CLR,,0.00,WeatherDisplay:10.37,2013-12-13 18:54:00,
2013-12-14 05:59:00,69.6,64.2,29.84,SW,231,5.0,7.0,83,0.00,CLR,,0.00,WeatherDisplay:10.37,2013-12-13 18:59:00,
2013-12-14 06:04:00,69.6,64.2,29.85,SW,224,5.0,9.0,83,0.00,CLR,,0.00,WeatherDisplay:10.37,2013-12-13 19:04:00,
2013-12-14 06:09:00,69.6,64.2,29.85,SW,234,2.0,9.0,83,0.00,CLR,,0.00,WeatherDisplay:10.37,2013-12-13 19:09:00,
2013-12-14 06:14:00,69.8,64.4,29.85,WSW,238,3.0,9.0,83,0.00,CLR,,0.00,WeatherDisplay:10.37,2013-12-13 19:14:00,
2013-12-14 06:19:00,69.8,64.0,29.85,SW,233,3.0,10.0,82,0.00,CLR,,0.00,WeatherDisplay:10.37,2013-12-13 19:19:00,
2013-12-14 06:24:00,70.0,64.6,29.86,WSW,239,2.0,9.0,83,0.00,CLR,,0.00,WeatherDisplay:10.37,2013-12-13 19:24:00,
2013-12-14 06:29:00,70.0,64.2,29.86,WSW,248,3.0,7.0,82,0.00,CLR,,0.00,WeatherDisplay:10.37,2013-12-13 19:29:00,
2013-12-14 06:34:00,70.2,64.4,29.86,WSW,250,5.0,6.0,82,0.00,CLR,,0.00,WeatherDisplay:10.37,2013-12-13 19:34:00,
2013-12-14 06:39:00,70.2,64.4,29.86,WSW,249,3.0,8.0,82,0.00,CLR,,0.00,WeatherDisplay:10.37,2013-12-13 19:39:00,
2013-12-14 06:44:00,70.3,64.6,29.87,WSW,241,1.0,10.0,82,0.00,CLR,,0.00,WeatherDisplay:10.37,2013-12-13 19:44:00,
2013-12-14 06:49:00,70.3,64.6,29.87,SW,226,1.0,10.0,82,0.00,CLR,,0.00,WeatherDisplay:10.37,2013-12-13 19:49:00,
2013-12-14 06:54:00,70.4,64.6,29.87,SW,223,2.0,8.0,82,0.00,CLR,,0.00,WeatherDisplay:10.37,2013-12-13 19:54:00,
2013-12-14 06:59:00,70.5,64.8,29.87,SW,231,2.0,7.0,82,0.00,CLR,,0.00,WeatherDisplay:10.37,2013-12-13 19:59:00,
2013-12-14 07:04:00,70.7,64.6,29.87,SW,236,5.0,8.0,81,0.00,CLR,,0.00,WeatherDisplay:10.37,2013-12-13 20:04:00,
2013-12-14 07:09:00,70.9,64.8,29.87,SW,234,5.0,9.0,81,0.00,CLR,,0.00,WeatherDisplay:10.37,2013-12-13 20:09:00,
2013-12-14 07:14:00,70.9,64.8,29.88,SW,223,5.0,10.0,81,0.00,CLR,,0.00,WeatherDisplay:10.37,2013-12-13 20:14:00,
2013-12-14 07:19:00,71.2,65.0,29.88,SW,225,5.0,7.0,81,0.00,CLR,,0.00,WeatherDisplay:10.37,2013-12-13 20:19:00,
2013-12-14 07:24:00,71.2,65.1,29.88,SW,221,6.0,10.0,81,0.00,CLR,,0.00,WeatherDisplay:10.37,2013-12-13 20:24:00,
2013-12-14 07:29:00,71.3,65.2,29.88,SW,220,7.0,10.0,81,0.00,CLR,,0.00,WeatherDisplay:10.37,2013-12-13 20:29:00,
2013-12-14 07:34:00,71.4,65.3,29.89,SW,226,6.0,12.0,81,0.00,CLR,,0.00,WeatherDisplay:10.37,2013-12-13 20:34:00,
2013-12-14 07:39:00,71.4,65.3,29.89,SW,223,6.0,11.0,81,0.00,CLR,,0.00,WeatherDisplay:10.37,2013-12-13 20:39:00,
2013-12-14 07:44:00,71.4,64.9,29.89,SW,222,6.0,13.0,80,0.00,CLR,,0.00,WeatherDisplay:10.37,2013-12-13 20:44:00,
2013-12-14 07:49:00,71.8,65.3,29.89,SW,224,7.0,10.0,80,0.00,CLR,,0.00,WeatherDisplay:10.37,2013-12-13 20:49:00,
2013-12-14 07:54:00,71.8,65.3,29.89,SW,223,5.0,13.0,80,0.00,CLR,,0.00,WeatherDisplay:10.37,2013-12-13 20:54:00,
2013-12-14 07:59:00,72.0,65.1,29.89,SW,217,8.0,10.0,79,0.00,CLR,,0.00,WeatherDisplay:10.37,2013-12-13 20:59:00,
2013-12-14 08:04:00,72.1,65.3,29.90,SW,227,7.0,12.0,79,0.00,CLR,,0.00,WeatherDisplay:10.37,2013-12-13 21:04:00,
2013-12-14 08:09:00,72.3,65.4,29.90,SW,222,6.0,8.0,79,0.00,CLR,,0.00,WeatherDisplay:10.37,2013-12-13 21:09:00,
2013-12-14 08:14:00,72.5,65.6,29.90,SW,222,5.0,9.0,79,0.00,CLR,,0.00,WeatherDisplay:10.37,2013-12-13 21:14:00,
2013-12-14 08:19:00,72.7,65.4,29.90,SW,218,5.0,11.0,78,0.00,CLR,,0.00,WeatherDisplay:10.37,2013-12-13 21:19:00,
2013-12-14 08:29:00,73.0,65.4,29.91,SW,218,3.0,14.0,77,0.00,CLR,,0.00,WeatherDisplay:10.37,2013-12-13 21:29:00,
2013-12-14 08:34:00,73.2,65.6,29.91,SW,218,7.0,14.0,77,0.00,CLR,,0.00,WeatherDisplay:10.37,2013-12-13 21:34:00,
2013-12-14 08:39:00,73.2,65.6,29.91,SW,227,3.0,10.0,77,0.00,CLR,,0.00,WeatherDisplay:10.37,2013-12-13 21:39:00,
2013-12-14 08:44:00,73.2,65.2,29.91,SW,233,6.0,13.0,76,0.00,CLR,,0.00,WeatherDisplay:10.37,2013-12-13 21:44:00,
2013-12-14 08:49:00,73.2,65.2,29.91,SW,232,8.0,13.0,76,0.00,CLR,,0.00,WeatherDisplay:10.37,2013-12-13 21:49:00,
2013-12-14 08:54:00,73.2,64.8,29.91,SW,231,7.0,15.0,75,0.00,CLR,,0.00,WeatherDisplay:10.37,2013-12-13 21:54:00,
2013-12-14 08:59:00,73.5,65.4,29.91,SW,234,5.0,8.0,76,0.00,CLR,,0.00,WeatherDisplay:10.37,2013-12-13 21:59:00,
2013-12-14 09:04:00,73.8,65.3,29.91,SW,227,7.0,14.0,75,0.00,CLR,,0.00,WeatherDisplay:10.37,2013-12-13 22:04:00,
2013-12-14 09:09:00,73.9,65.5,29.92,SW,228,5.0,10.0,75,0.00,CLR,,0.00,WeatherDisplay:10.37,2013-12-13 22:09:00,
2013-12-14 09:14:00,74.1,65.3,29.92,SW,230,9.0,14.0,74,0.00,CLR,,0.00,WeatherDisplay:10.37,2013-12-13 22:14:00,
2013-12-14 09:19:00,74.1,65.7,29.92,SSW,212,6.0,14.0,75,0.00,CLR,,0.00,WeatherDisplay:10.37,2013-12-13 22:19:00,
2013-12-14 09:24:00,74.1,65.3,29.92,SSW,196,7.0,13.0,74,0.00,CLR,,0.00,WeatherDisplay:10.37,2013-12-13 22:24:00,
2013-12-14 09:29:00,74.1,65.3,29.92,SSW,197,6.0,17.0,74,0.00,CLR,,0.00,WeatherDisplay:10.37,2013-12-13 22:29:00,
2013-12-14 09:34:00,74.4,65.6,29.92,SSW,199,9.0,16.0,74,0.00,CLR,,0.00,WeatherDisplay:10.37,2013-12-13 22:34:00,
2013-12-14 09:39:00,74.8,65.6,29.92,SSW,201,6.0,17.0,73,0.00,CLR,,0.00,WeatherDisplay:10.37,2013-12-13 22:39:00,
2013-12-14 09:44:00,75.3,66.0,29.92,SSW,203,6.0,13.0,73,0.00,CLR,,0.00,WeatherDisplay:10.37,2013-12-13 22:44:00,
2013-12-14 09:49:00,75.4,65.7,29.92,SSW,204,8.0,14.0,72,0.00,CLR,,0.00,WeatherDisplay:10.37,2013-12-13 22:49:00,
2013-12-14 09:54:00,75.0,65.4,29.92,SW,222,9.0,20.0,72,0.00,CLR,,0.00,WeatherDisplay:10.37,2013-12-13 22:54:00,
2013-12-14 09:59:00,75.0,65.0,29.92,SW,230,8.0,18.0,71,0.00,CLR,,0.00,WeatherDisplay:10.37,2013-12-13 22:59:00,
2013-12-14 10:04:00,74.8,64.8,29.92,SW,222,8.0,18.0,71,0.00,CLR,,0.00,WeatherDisplay:10.37,2013-12-13 23:04:00,
2013-12-14 10:09:00,75.0,65.0,29.93,SSW,213,10.0,16.0,71,0.00,CLR,,0.00,WeatherDisplay:10.37,2013-12-13 23:09:00,
2013-12-14 10:14:00,75.4,64.9,29.93,SSW,209,13.0,20.0,70,0.00,CLR,,0.00,WeatherDisplay:10.37,2013-12-13 23:14:00,
2013-12-14 10:19:00,75.9,64.6,29.93,SSW,211,12.0,20.0,68,0.00,CLR,,0.00,WeatherDisplay:10.37,2013-12-13 23:19:00,
2013-12-14 10:24:00,76.0,64.6,29.93,SSW,211,8.0,14.0,68,0.02,RA,,0.02,WeatherDisplay:10.37,2013-12-13 23:24:00,
2013-12-14 10:29:00,76.3,64.9,29.93,South,190,12.0,21.0,68,0.00,RA,,0.02,WeatherDisplay:10.37,2013-12-13 23:29:00,
2013-12-14 10:34:00,76.3,64.9,29.93,South,184,9.0,16.0,68,0.00,CLR,,0.02,WeatherDisplay:10.37,2013-12-13 23:34:00,
2013-12-14 10:39:00,76.3,64.5,29.93,SSW,195,10.0,21.0,67,0.00,CLR,,0.02,WeatherDisplay:10.37,2013-12-13 23:39:00,
2013-12-14 10:44:00,75.9,64.6,29.93,SSW,206,12.0,20.0,68,0.00,CLR,,0.02,WeatherDisplay:10.37,2013-12-13 23:44:00,
2013-12-14 10:49:00,75.9,64.6,29.94,SSW,204,13.0,18.0,68,0.00,CLR,,0.02,WeatherDisplay:10.37,2013-12-13 23:49:00,
2013-12-14 10:54:00,75.7,64.0,29.94,SSW,199,13.0,15.0,67,0.00,CLR,,0.02,WeatherDisplay:10.37,2013-12-13 23:54:00,
2013-12-14 10:59:00,75.7,64.0,29.94,SSW,195,9.0,20.0,67,0.00,CLR,,0.02,WeatherDisplay:10.37,2013-12-13 23:59:00,
2013-12-14 11:04:00,75.7,64.4,29.94,SSW,200,10.0,18.0,68,0.00,CLR,,0.02,WeatherDisplay:10.37,2013-12-14 00:04:00,
2013-12-14 11:09:00,75.7,64.0,29.94,SSW,204,12.0,17.0,67,0.00,CLR,,0.02,WeatherDisplay:10.37,2013-12-14 00:09:00,
2013-12-14 11:14:00,75.4,64.1,29.95,South,189,12.0,17.0,68,0.00,CLR,,0.02,WeatherDisplay:10.37,2013-12-14 00:14:00,
2013-12-14 11:19:00,75.2,63.9,29.95,South,190,9.0,24.0,68,0.00,CLR,,0.02,WeatherDisplay:10.37,2013-12-14 00:19:00,
2013-12-14 11:24:00,75.0,63.7,29.95,SSW,195,12.0,18.0,68,0.00,CLR,,0.02,WeatherDisplay:10.37,2013-12-14 00:24:00,
2013-12-14 11:29:00,75.0,63.7,29.95,South,185,15.0,20.0,68,0.00,CLR,,0.02,WeatherDisplay:10.37,2013-12-14 00:29:00,
2013-12-14 11:34:00,75.4,64.5,29.95,South,181,10.0,17.0,69,0.00,CLR,,0.02,WeatherDisplay:10.37,2013-12-14 00:34:00,
2013-12-14 11:39:00,75.4,64.1,29.95,South,184,14.0,18.0,68,0.00,CLR,,0.02,WeatherDisplay:10.37,2013-12-14 00:39:00,
2013-12-14 11:44:00,75.6,63.8,29.94,South,177,8.0,16.0,67,0.00,CLR,,0.02,WeatherDisplay:10.37,2013-12-14 00:44:00,
2013-12-14 11:49:00,76.1,64.8,29.94,South,175,6.0,13.0,68,0.00,CLR,,0.02,WeatherDisplay:10.37,2013-12-14 00:49:00,
2013-12-14 11:54:00,76.6,64.9,29.94,South,172,8.0,12.0,67,0.00,CLR,,0.02,WeatherDisplay:10.37,2013-12-14 00:54:00,
2013-12-14 11:59:00,76.6,64.4,29.94,SSE,168,8.0,13.0,66,0.00,CLR,,0.02,WeatherDisplay:10.37,2013-12-14 00:59:00,
2013-12-14 12:04:00,76.4,64.6,29.94,South,175,8.0,19.0,67,0.00,CLR,,0.02,WeatherDisplay:10.37,2013-12-14 01:04:00,
2013-12-14 12:09:00,76.8,65.0,29.94,South,180,12.0,13.0,67,0.00,CLR,,0.02,WeatherDisplay:10.37,2013-12-14 01:09:00,
2013-12-14 12:14:00,76.8,64.6,29.94,South,177,7.0,13.0,66,0.00,CLR,,0.02,WeatherDisplay:10.37,2013-12-14 01:14:00,
2013-12-14 12:19:00,77.0,64.8,29.94,SSE,168,7.0,14.0,66,0.00,CLR,,0.02,WeatherDisplay:10.37,2013-12-14 01:19:00,
2013-12-14 12:24:00,77.5,64.8,29.94,SSE,164,9.0,16.0,65,0.00,CLR,,0.02,WeatherDisplay:10.37,2013-12-14 01:24:00,
2013-12-14 12:29:00,77.8,64.7,29.94,South,182,10.0,16.0,64,0.00,CLR,,0.02,WeatherDisplay:10.37,2013-12-14 01:29:00,
2013-12-14 12:34:00,77.5,64.4,29.94,South,181,9.0,18.0,64,0.00,CLR,,0.02,WeatherDisplay:10.37,2013-12-14 01:34:00,
2013-12-14 12:39:00,77.4,64.7,29.94,South,176,12.0,15.0,65,0.00,CLR,,0.02,WeatherDisplay:10.37,2013-12-14 01:39:00,
2013-12-14 12:44:00,76.9,64.3,29.94,South,175,9.0,18.0,65,0.00,CLR,,0.02,WeatherDisplay:10.37,2013-12-14 01:44:00,
2013-12-14 12:49:00,76.7,64.5,29.94,South,178,7.0,16.0,66,0.00,CLR,,0.02,WeatherDisplay:10.37,2013-12-14 01:49:00,
2013-12-14 12:54:00,77.2,64.5,29.94,South,179,13.0,18.0,65,0.00,CLR,,0.02,WeatherDisplay:10.37,2013-12-14 01:54:00,
2013-12-14 12:59:00,77.0,64.8,29.94,South,184,10.0,15.0,66,0.00,CLR,,0.02,WeatherDisplay:10.37,2013-12-14 01:59:00,
2013-12-14 13:04:00,77.5,64.8,29.93,South,173,10.0,19.0,65,0.00,CLR,,0.02,WeatherDisplay:10.37,2013-12-14 02:04:00,
2013-12-14 13:09:00,77.5,65.3,29.93,South,174,9.0,19.0,66,0.00,CLR,,0.02,WeatherDisplay:10.37,2013-12-14 02:09:00,
2013-12-14 13:14:00,77.5,64.8,29.93,South,185,12.0,16.0,65,0.00,CLR,,0.02,WeatherDisplay:10.37,2013-12-14 02:14:00,
2013-12-14 13:19:00,77.5,65.3,29.93,South,176,12.0,17.0,66,0.00,CLR,,0.02,WeatherDisplay:10.37,2013-12-14 02:19:00,
2013-12-14 13:24:00,77.7,64.6,29.93,South,178,13.0,20.0,64,0.00,CLR,,0.02,WeatherDisplay:10.37,2013-12-14 02:24:00,
2013-12-14 13:29:00,77.7,64.6,29.93,South,180,10.0,16.0,64,0.00,CLR,,0.02,WeatherDisplay:10.37,2013-12-14 02:29:00,
2013-12-14 13:34:00,77.7,64.6,29.92,South,175,12.0,17.0,64,0.00,CLR,,0.02,WeatherDisplay:10.37,2013-12-14 02:34:00,
2013-12-14 13:39:00,77.7,64.1,29.91,South,177,10.0,16.0,63,0.00,CLR,,0.02,WeatherDisplay:10.37,2013-12-14 02:39:00,
2013-12-14 13:44:00,78.1,64.5,29.91,South,181,8.0,18.0,63,0.00,CLR,,0.02,WeatherDisplay:10.37,2013-12-14 02:44:00,
2013-12-14 13:49:00,78.3,63.8,29.91,South,179,14.0,17.0,61,0.00,CLR,,0.02,WeatherDisplay:10.37,2013-12-14 02:49:00,
2013-12-14 13:54:00,78.4,63.9,29.91,South,183,10.0,18.0,61,0.00,CLR,,0.02,WeatherDisplay:10.37,2013-12-14 02:54:00,
2013-12-14 13:59:00,78.6,64.5,29.91,South,187,7.0,12.0,62,0.00,CLR,,0.02,WeatherDisplay:10.37,2013-12-14 02:59:00,
2013-12-14 14:04:00,78.8,64.7,29.91,South,179,12.0,18.0,62,0.00,CLR,,0.02,WeatherDisplay:10.37,2013-12-14 03:04:00,
2013-12-14 14:09:00,78.8,64.2,29.91,South,169,9.0,16.0,61,0.00,CLR,,0.02,WeatherDisplay:10.37,2013-12-14 03:09:00,
2013-12-14 14:14:00,79.3,64.7,29.90,SSE,166,8.0,16.0,61,0.00,CLR,,0.02,WeatherDisplay:10.37,2013-12-14 03:14:00,
2013-12-14 14:19:00,79.0,64.4,29.91,SSE,165,8.0,17.0,61,0.00,CLR,,0.02,WeatherDisplay:10.37,2013-12-14 03:19:00,
2013-12-14 14:24:00,79.0,64.4,29.91,SSE,167,9.0,17.0,61,0.00,CLR,,0.02,WeatherDisplay:10.37,2013-12-14 03:24:00,
2013-12-14 14:29:00,78.6,63.6,29.92,SSE,167,6.0,16.0,60,0.00,CLR,,0.02,WeatherDisplay:10.37,2013-12-14 03:29:00,
2013-12-14 14:34:00,78.8,64.2,29.92,SSE,168,8.0,15.0,61,0.00,CLR,,0.02,WeatherDisplay:10.37,2013-12-14 03:34:00,
2013-12-14 14:39:00,79.0,63.9,29.92,South,170,14.0,18.0,60,0.00,CLR,,0.02,WeatherDisplay:10.37,2013-12-14 03:39:00,
2013-12-14 14:44:00,78.6,64.0,29.92,SSE,166,13.0,19.0,61,0.00,CLR,,0.02,WeatherDisplay:10.37,2013-12-14 03:44:00,
2013-12-14 14:49:00,78.6,64.5,29.92,SSE,163,12.0,21.0,62,0.00,CLR,,0.02,WeatherDisplay:10.37,2013-12-14 03:49:00,
2013-12-14 14:54:00,78.4,64.3,29.92,SSE,158,9.0,20.0,62,0.00,CLR,,0.02,WeatherDisplay:10.37,2013-12-14 03:54:00,
2013-12-14 14:59:00,78.1,64.5,29.92,South,171,15.0,20.0,63,0.00,CLR,,0.02,WeatherDisplay:10.37,2013-12-14 03:59:00,
2013-12-14 15:04:00,78.1,64.5,29.92,South,181,12.0,18.0,63,0.00,CLR,,0.02,WeatherDisplay:10.37,2013-12-14 04:04:00,
2013-12-14 15:09:00,78.1,64.5,29.93,South,174,15.0,21.0,63,0.00,CLR,,0.02,WeatherDisplay:10.37,2013-12-14 04:09:00,
2013-12-14 15:14:00,77.9,64.2,29.93,South,173,10.0,21.0,63,0.00,CLR,,0.02,WeatherDisplay:10.37,2013-12-14 04:14:00,
2013-12-14 15:19:00,77.7,64.1,29.93,South,177,15.0,20.0,63,0.00,CLR,,0.02,WeatherDisplay:10.37,2013-12-14 04:19:00,
2013-12-14 15:24:00,77.7,64.1,29.92,South,175,14.0,22.0,63,0.00,CLR,,0.02,WeatherDisplay:10.37,2013-12-14 04:24:00,
2013-12-14 15:29:00,77.5,63.5,29.93,South,175,15.0,22.0,62,0.00,CLR,,0.02,WeatherDisplay:10.37,2013-12-14 04:29:00,
2013-12-14 15:34:00,77.5,63.5,29.92,South,175,9.0,20.0,62,0.00,CLR,,0.02,WeatherDisplay:10.37,2013-12-14 04:34:00,
2013-12-14 15:39:00,77.5,63.5,29.93,South,179,15.0,22.0,62,0.00,CLR,,0.02,WeatherDisplay:10.37,2013-12-14 04:39:00,
2013-12-14 15:49:00,76.6,64.0,29.93,South,175,12.0,19.0,65,0.00,CLR,,0.02,WeatherDisplay:10.37,2013-12-14 04:49:00,
2013-12-14 15:54:00,76.3,64.1,29.93,South,171,10.0,17.0,66,0.00,CLR,,0.02,WeatherDisplay:10.37,2013-12-14 04:54:00,
2013-12-14 15:59:00,76.1,63.9,29.93,South,170,10.0,21.0,66,0.00,CLR,,0.02,WeatherDisplay:10.37,2013-12-14 04:59:00,
2013-12-14 16:04:00,75.7,64.0,29.93,South,169,13.0,21.0,67,0.00,CLR,,0.02,WeatherDisplay:10.37,2013-12-14 05:04:00,
2013-12-14 16:09:00,75.7,64.0,29.93,SSE,165,8.0,23.0,67,0.00,CLR,,0.02,WeatherDisplay:10.37,2013-12-14 05:09:00,
2013-12-14 16:14:00,76.4,64.7,29.93,South,177,14.0,17.0,67,0.00,CLR,,0.02,WeatherDisplay:10.37,2013-12-14 05:14:00,
2013-12-14 16:19:00,76.8,64.2,29.93,South,189,10.0,17.0,65,0.00,CLR,,0.02,WeatherDisplay:10.37,2013-12-14 05:19:00,
2013-12-14 16:24:00,77.2,64.5,29.93,South,180,8.0,18.0,65,0.00,CLR,,0.02,WeatherDisplay:10.37,2013-12-14 05:24:00,
2013-12-14 16:29:00,77.5,63.9,29.93,SSE,164,16.0,22.0,63,0.00,CLR,,0.02,WeatherDisplay:10.37,2013-12-14 05:29:00,
2013-12-14 16:34:00,77.4,63.8,29.94,SSE,168,9.0,16.0,63,0.00,CLR,,0.02,WeatherDisplay:10.37,2013-12-14 05:34:00,
2013-12-14 16:39:00,76.8,63.3,29.93,SSE,166,13.0,19.0,63,0.00,CLR,,0.02,WeatherDisplay:10.37,2013-12-14 05:39:00,
2013-12-14 16:44:00,76.1,63.0,29.93,South,171,13.0,18.0,64,0.00,CLR,,0.02,WeatherDisplay:10.37,2013-12-14 05:44:00,
2013-12-14 16:49:00,75.7,63.1,29.92,South,178,12.0,18.0,65,0.00,CLR,,0.02,WeatherDisplay:10.37,2013-12-14 05:49:00,
2013-12-14 16:54:00,75.7,63.6,29.92,South,178,10.0,18.0,66,0.00,CLR,,0.02,WeatherDisplay:10.37,2013-12-14 05:54:00,
2013-12-14 16:59:00,76.4,63.3,29.91,South,181,9.0,18.0,64,0.00,CLR,,0.02,WeatherDisplay:10.37,2013-12-14 05:59:00,
2013-12-14 17:04:00,76.8,63.3,29.92,South,172,10.0,19.0,63,0.00,CLR,,0.02,WeatherDisplay:10.37,2013-12-14 06:04:00,
2013-12-14 17:09:00,77.0,63.9,29.92,South,171,10.0,19.0,64,0.00,CLR,,0.02,WeatherDisplay:10.37,2013-12-14 06:09:00,
2013-12-14 17:14:00,76.6,64.0,29.93,South,174,10.0,20.0,65,0.00,CLR,,0.02,WeatherDisplay:10.37,2013-12-14 06:14:00,
2013-12-14 17:19:00,75.9,63.3,29.93,South,173,10.0,18.0,65,0.00,CLR,,0.02,WeatherDisplay:10.37,2013-12-14 06:19:00,
2013-12-14 17:24:00,75.4,62.8,29.94,South,174,10.0,20.0,65,0.00,CLR,,0.02,WeatherDisplay:10.37,2013-12-14 06:24:00,
2013-12-14 17:29:00,75.7,63.5,29.94,South,180,8.0,22.0,66,0.00,CLR,,0.02,WeatherDisplay:10.37,2013-12-14 06:29:00,
2013-12-14 17:34:00,76.1,63.9,29.94,South,178,7.0,16.0,66,0.00,CLR,,0.02,WeatherDisplay:10.37,2013-12-14 06:34:00,
2013-12-14 17:39:00,75.9,63.3,29.94,South,174,12.0,17.0,65,0.00,CLR,,0.02,WeatherDisplay:10.37,2013-12-14 06:39:00,
2013-12-14 17:44:00,75.7,63.1,29.94,South,172,8.0,13.0,65,0.00,CLR,,0.02,WeatherDisplay:10.37,2013-12-14 06:44:00,
2013-12-14 17:49:00,75.9,61.9,29.95,South,172,13.0,20.0,62,0.00,CLR,,0.02,WeatherDisplay:10.37,2013-12-14 06:49:00,
2013-12-14 17:54:00,75.4,61.5,29.95,South,172,10.0,17.0,62,0.00,CLR,,0.02,WeatherDisplay:10.37,2013-12-14 06:54:00,
2013-12-14 17:59:00,74.8,61.8,29.95,South,180,13.0,16.0,64,0.00,CLR,,0.02,WeatherDisplay:10.37,2013-12-14 06:59:00,
2013-12-14 18:04:00,74.2,62.5,29.95,South,188,10.0,15.0,67,0.00,CLR,,0.02,WeatherDisplay:10.37,2013-12-14 07:04:00,
2013-12-14 18:09:00,73.9,63.1,29.95,South,169,9.0,16.0,69,0.00,CLR,,0.02,WeatherDisplay:10.37,2013-12-14 07:09:00,
2013-12-14 18:14:00,73.9,63.5,29.95,SSE,163,7.0,12.0,70,0.00,CLR,,0.02,WeatherDisplay:10.37,2013-12-14 07:14:00,
2013-12-14 18:19:00,73.9,63.5,29.96,SSE,167,7.0,14.0,70,0.00,CLR,,0.02,WeatherDisplay:10.37,2013-12-14 07:19:00,
2013-12-14 18:24:00,73.9,63.5,29.96,SSE,161,9.0,17.0,70,0.00,CLR,,0.02,WeatherDisplay:10.37,2013-12-14 07:24:00,
2013-12-14 18:29:00,73.8,63.4,29.96,SSE,163,8.0,17.0,70,0.00,CLR,,0.02,WeatherDisplay:10.37,2013-12-14 07:29:00,
2013-12-14 18:34:00,73.6,63.2,29.96,SSE,162,7.0,16.0,70,0.00,CLR,,0.02,WeatherDisplay:10.37,2013-12-14 07:34:00,
2013-12-14 18:39:00,73.4,62.6,29.96,SSE,159,7.0,18.0,69,0.00,CLR,,0.02,WeatherDisplay:10.37,2013-12-14 07:39:00,
2013-12-14 18:44:00,73.2,62.0,29.96,SSE,153,8.0,15.0,68,0.00,CLR,,0.02,WeatherDisplay:10.37,2013-12-14 07:44:00,
2013-12-14 18:49:00,73.0,61.9,29.97,SSE,154,5.0,7.0,68,0.00,CLR,,0.02,WeatherDisplay:10.37,2013-12-14 07:49:00,
2013-12-14 18:54:00,72.9,61.8,29.97,SSE,164,6.0,8.0,68,0.00,CLR,,0.02,WeatherDisplay:10.37,2013-12-14 07:54:00,
2013-12-14 18:59:00,72.7,61.5,29.98,SSE,152,6.0,11.0,68,0.00,CLR,,0.02,WeatherDisplay:10.37,2013-12-14 07:59:00,
2013-12-14 19:04:00,72.3,61.2,29.98,SSE,151,6.0,10.0,68,0.00,CLR,,0.02,WeatherDisplay:10.37,2013-12-14 08:04:00,
2013-12-14 19:09:00,72.3,61.5,29.98,SSE,154,5.0,11.0,69,0.00,CLR,,0.02,WeatherDisplay:10.37,2013-12-14 08:09:00,
2013-12-14 19:14:00,72.1,61.4,29.99,SSE,158,3.0,11.0,69,0.00,CLR,,0.02,WeatherDisplay:10.37,2013-12-14 08:14:00,
2013-12-14 19:19:00,72.0,60.8,29.99,SSE,165,3.0,10.0,68,0.00,CLR,,0.02,WeatherDisplay:10.37,2013-12-14 08:19:00,
2013-12-14 19:24:00,71.4,59.9,29.99,SSE,168,7.0,11.0,67,0.00,CLR,,0.02,WeatherDisplay:10.37,2013-12-14 08:24:00,
2013-12-14 19:29:00,71.2,59.7,29.99,South,175,6.0,8.0,67,0.00,CLR,,0.02,WeatherDisplay:10.37,2013-12-14 08:29:00,
2013-12-14 19:34:00,71.2,59.7,30.00,South,170,9.0,13.0,67,0.00,CLR,,0.02,WeatherDisplay:10.37,2013-12-14 08:34:00,
2013-12-14 19:39:00,71.2,59.6,30.00,SSE,167,3.0,6.0,67,0.00,CLR,,0.02,WeatherDisplay:10.37,2013-12-14 08:39:00,
2013-12-14 19:44:00,71.1,59.5,30.00,South,170,7.0,10.0,67,0.00,CLR,,0.02,WeatherDisplay:10.37,2013-12-14 08:44:00,
2013-12-14 19:49:00,70.9,59.8,30.00,SSW,196,7.0,12.0,68,0.00,CLR,,0.02,WeatherDisplay:10.37,2013-12-14 08:49:00,
2013-12-14 19:54:00,70.9,59.8,30.01,SSW,197,7.0,12.0,68,0.00,CLR,,0.02,WeatherDisplay:10.37,2013-12-14 08:54:00,
2013-12-14 19:59:00,70.9,59.8,30.00,South,182,3.0,7.0,68,0.00,CLR,,0.02,WeatherDisplay:10.37,2013-12-14 08:59:00,
2013-12-14 20:04:00,70.9,59.8,30.01,South,174,1.0,6.0,68,0.00,CLR,,0.02,WeatherDisplay:10.37,2013-12-14 09:04:00,
2013-12-14 20:09:00,70.9,60.3,30.00,SSE,159,5.0,6.0,69,0.00,CLR,,0.02,WeatherDisplay:10.37,2013-12-14 09:09:00,
2013-12-14 20:14:00,70.9,60.2,30.00,SSE,156,6.0,14.0,69,0.00,CLR,,0.02,WeatherDisplay:10.37,2013-12-14 09:14:00,
2013-12-14 20:19:00,70.7,60.0,30.01,SSE,161,3.0,7.0,69,0.00,CLR,,0.02,WeatherDisplay:10.37,2013-12-14 09:19:00,
2013-12-14 20:24:00,70.5,60.3,30.01,South,169,5.0,7.0,70,0.00,CLR,,0.02,WeatherDisplay:10.37,2013-12-14 09:24:00,
2013-12-14 20:29:00,70.5,60.3,30.01,SSE,164,5.0,10.0,70,0.00,CLR,,0.02,WeatherDisplay:10.37,2013-12-14 09:29:00,
2013-12-14 20:34:00,70.5,60.2,30.01,SSE,163,2.0,6.0,70,0.00,CLR,,0.02,WeatherDisplay:10.37,2013-12-14 09:34:00,
2013-12-14 20:39:00,70.5,60.3,30.01,SSE,158,2.0,6.0,70,0.00,CLR,,0.02,WeatherDisplay:10.37,2013-12-14 09:39:00,
2013-12-14 20:44:00,70.5,60.3,30.02,SSE,158,3.0,7.0,70,0.00,CLR,,0.02,WeatherDisplay:10.37,2013-12-14 09:44:00,
2013-12-14 20:49:00,70.3,60.1,30.02,South,171,3.0,9.0,70,0.00,CLR,,0.02,WeatherDisplay:10.37,2013-12-14 09:49:00,
2013-12-14 20:54:00,70.3,60.1,30.02,South,173,3.0,7.0,70,0.00,CLR,,0.02,WeatherDisplay:10.37,2013-12-14 09:54:00,
2013-12-14 20:59:00,70.3,60.1,30.02,SSE,154,2.0,7.0,70,0.00,CLR,,0.02,WeatherDisplay:10.37,2013-12-14 09:59:00,
2013-12-14 21:04:00,70.3,60.1,30.02,SSE,150,3.0,6.0,70,0.00,CLR,,0.02,WeatherDisplay:10.37,2013-12-14 10:04:00,
2013-12-14 21:09:00,70.3,60.1,30.02,SSE,159,3.0,6.0,70,0.00,CLR,,0.02,WeatherDisplay:10.37,2013-12-14 10:09:00,
2013-12-14 21:14:00,70.3,60.1,30.03,SSE,155,2.0,7.0,70,0.00,CLR,,0.02,WeatherDisplay:10.37,2013-12-14 10:14:00,
2013-12-14 21:19:00,70.3,60.1,30.03,SSE,153,2.0,6.0,70,0.00,CLR,,0.02,WeatherDisplay:10.37,2013-12-14 10:19:00,
2013-12-14 21:24:00,70.3,60.1,30.03,South,172,3.0,6.0,70,0.00,CLR,,0.02,WeatherDisplay:10.37,2013-12-14 10:24:00,
2013-12-14 21:29:00,70.3,60.0,30.03,SSE,164,3.0,6.0,70,0.00,CLR,,0.02,WeatherDisplay:10.37,2013-12-14 10:29:00,
2013-12-14 21:34:00,70.3,60.1,30.03,SSE,150,1.0,6.0,70,0.00,CLR,,0.02,WeatherDisplay:10.37,2013-12-14 10:34:00,
2013-12-14 21:39:00,70.3,60.1,30.03,SSE,152,0.0,4.0,70,0.00,CLR,,0.02,WeatherDisplay:10.37,2013-12-14 10:39:00,
2013-12-14 21:44:00,70.3,60.5,30.04,South,170,1.0,3.0,71,0.00,CLR,,0.02,WeatherDisplay:10.37,2013-12-14 10:44:00,
2013-12-14 21:49:00,70.3,60.1,30.04,South,172,1.0,5.0,70,0.00,CLR,,0.02,WeatherDisplay:10.37,2013-12-14 10:49:00,
2013-12-14 21:54:00,70.2,60.3,30.04,SSE,156,1.0,5.0,71,0.00,CLR,,0.02,WeatherDisplay:10.37,2013-12-14 10:54:00,
2013-12-14 21:59:00,70.2,60.3,30.04,SSE,149,2.0,4.0,71,0.00,CLR,,0.02,WeatherDisplay:10.37,2013-12-14 10:59:00,
2013-12-14 22:04:00,70.2,60.3,30.04,SSE,147,2.0,4.0,71,0.00,CLR,,0.02,WeatherDisplay:10.37,2013-12-14 11:04:00,
2013-12-14 22:09:00,70.2,60.3,30.04,SE,142,1.0,3.0,71,0.00,CLR,,0.02,WeatherDisplay:10.37,2013-12-14 11:09:00,
2013-12-14 22:14:00,70.0,60.1,30.04,SSE,156,2.0,3.0,71,0.00,CLR,,0.02,WeatherDisplay:10.37,2013-12-14 11:14:00,
2013-12-14 22:19:00,70.0,60.1,30.04,South,175,0.0,3.0,71,0.00,CLR,,0.02,WeatherDisplay:10.37,2013-12-14 11:19:00,
2013-12-14 22:24:00,69.8,60.4,30.04,South,188,1.0,2.0,72,0.00,CLR,,0.02,WeatherDisplay:10.37,2013-12-14 11:24:00,
2013-12-14 22:29:00,69.7,60.3,30.04,South,184,2.0,4.0,72,0.00,CLR,,0.02,WeatherDisplay:10.37,2013-12-14 11:29:00,
2013-12-14 22:34:00,69.6,60.2,30.05,SSW,192,1.0,3.0,72,0.00,CLR,,0.02,WeatherDisplay:10.37,2013-12-14 11:34:00,
2013-12-14 22:39:00,69.6,60.2,30.05,South,190,1.0,5.0,72,0.00,CLR,,0.02,WeatherDisplay:10.37,2013-12-14 11:39:00,
2013-12-14 22:44:00,69.5,60.5,30.05,South,173,1.0,5.0,73,0.00,CLR,,0.02,WeatherDisplay:10.37,2013-12-14 11:44:00,
2013-12-14 22:49:00,69.4,60.4,30.04,South,172,2.0,4.0,73,0.00,CLR,,0.02,WeatherDisplay:10.37,2013-12-14 11:49:00,
2013-12-14 22:54:00,69.4,60.4,30.04,SSE,168,0.0,2.0,73,0.00,CLR,,0.02,WeatherDisplay:10.37,2013-12-14 11:54:00,
2013-12-14 22:59:00,69.4,60.8,30.04,SSE,158,1.0,3.0,74,0.00,CLR,,0.02,WeatherDisplay:10.37,2013-12-14 11:59:00,
2013-12-14 23:04:00,69.4,60.8,30.04,SSE,167,0.0,2.0,74,0.00,CLR,,0.02,WeatherDisplay:10.37,2013-12-14 12:04:00,
2013-12-14 23:09:00,69.5,60.9,30.04,SSE,157,0.0,1.0,74,0.00,CLR,,0.02,WeatherDisplay:10.37,2013-12-14 12:09:00,
2013-12-14 23:14:00,69.6,61.0,30.04,ESE,115,0.0,0.0,74,0.00,CLR,,0.02,WeatherDisplay:10.37,2013-12-14 12:14:00,
2013-12-14 23:19:00,69.6,61.0,30.04,SE,141,1.0,2.0,74,0.00,CLR,,0.02,WeatherDisplay:10.37,2013-12-14 12:19:00,
2013-12-14 23:24:00,69.6,60.9,30.04,South,179,0.0,2.0,74,0.00,CLR,,0.02,WeatherDisplay:10.37,2013-12-14 12:24:00,
2013-12-14 23:29:00,69.4,60.8,30.05,SSW,203,1.0,3.0,74,0.00,CLR,,0.02,WeatherDisplay:10.37,2013-12-14 12:29:00,
2013-12-14 23:34:00,69.4,60.8,30.05,South,190,0.0,2.0,74,0.00,CLR,,0.02,WeatherDisplay:10.37,2013-12-14 12:34:00,
2013-12-14 23:39:00,69.4,61.2,30.04,SSE,162,0.0,1.0,75,0.00,CLR,,0.02,WeatherDisplay:10.37,2013-12-14 12:39:00,
2013-12-14 23:44:00,69.4,61.2,30.05,ENE,57,0.0,0.0,75,0.00,CLR,,0.02,WeatherDisplay:10.37,2013-12-14 12:44:00,
2013-12-14 23:49:00,69.1,60.8,30.04,ESE,109,0.0,1.0,75,0.00,CLR,,0.02,WeatherDisplay:10.37,2013-12-14 12:49:00,
2013-12-14 23:54:00,69.1,60.8,30.04,SSW,192,0.0,0.0,75,0.00,CLR,,0.02,WeatherDisplay:10.37,2013-12-14 12:54:00,
2013-12-14 23:59:00,68.9,60.6,30.04,NNW,340,1.0,2.0,75,0.00,CLR,,0.02,WeatherDisplay:10.37,2013-12-14 12:59:00,